sensor_id;sensor_type;location;lat;lon;timestamp;pressure;altitude;pressure_sealevel;temperature;humidity
34674;BME280;20879;55.668;37.858;2022-07-23T00:00:46;99737.66;;;17.42;76.43
34674;BME280;20879;55.668;37.858;2022-07-23T00:03:16;99741.34;;;17.38;76.80
34674;BME280;20879;55.668;37.858;2022-07-23T00:05:45;99753.34;;;17.22;77.68
34674;BME280;20879;55.668;37.858;2022-07-23T00:08:14;99747.47;;;17.17;78.18
34674;BME280;20879;55.668;37.858;2022-07-23T00:10:43;99738.84;;;17.15;78.23
34674;BME280;20879;55.668;37.858;2022-07-23T00:13:13;99750.09;;;17.17;78.13
34674;BME280;20879;55.668;37.858;2022-07-23T00:15:44;99752.69;;;17.17;78.65
34674;BME280;20879;55.668;37.858;2022-07-23T00:18:13;99742.31;;;17.15;78.11
34674;BME280;20879;55.668;37.858;2022-07-23T00:20:42;99744.00;;;16.96;78.26
34674;BME280;20879;55.668;37.858;2022-07-23T00:23:12;99748.34;;;16.95;79.20
34674;BME280;20879;55.668;37.858;2022-07-23T00:25:41;99734.81;;;16.84;79.42
34674;BME280;20879;55.668;37.858;2022-07-23T00:28:11;99757.78;;;16.99;78.63
34674;BME280;20879;55.668;37.858;2022-07-23T00:30:44;99749.59;;;17.07;78.76
34674;BME280;20879;55.668;37.858;2022-07-23T00:33:14;99743.72;;;17.02;79.08
34674;BME280;20879;55.668;37.858;2022-07-23T00:35:43;99750.00;;;16.98;79.28
34674;BME280;20879;55.668;37.858;2022-07-23T00:38:12;99729.78;;;16.79;79.64
34674;BME280;20879;55.668;37.858;2022-07-23T00:40:42;99755.41;;;16.93;79.92
34674;BME280;20879;55.668;37.858;2022-07-23T00:43:11;99754.47;;;16.94;79.93
34674;BME280;20879;55.668;37.858;2022-07-23T00:45:40;99734.72;;;16.87;79.73
34674;BME280;20879;55.668;37.858;2022-07-23T00:48:12;99738.03;;;16.92;80.55
34674;BME280;20879;55.668;37.858;2022-07-23T00:50:42;99751.78;;;16.97;80.01
34674;BME280;20879;55.668;37.858;2022-07-23T00:53:12;99751.88;;;16.94;80.64
34674;BME280;20879;55.668;37.858;2022-07-23T00:55:42;99751.03;;;16.93;80.68
34674;BME280;20879;55.668;37.858;2022-07-23T00:58:11;99739.22;;;16.83;80.61
34674;BME280;20879;55.668;37.858;2022-07-23T01:00:41;99741.00;;;16.83;80.59
34674;BME280;20879;55.668;37.858;2022-07-23T01:03:12;99747.06;;;16.83;81.45
34674;BME280;20879;55.668;37.858;2022-07-23T01:05:42;99726.59;;;16.72;81.12
34674;BME280;20879;55.668;37.858;2022-07-23T01:08:12;99754.31;;;16.76;81.61
34674;BME280;20879;55.668;37.858;2022-07-23T01:10:42;99803.06;;;16.77;81.78
34674;BME280;20879;55.668;37.858;2022-07-23T01:13:12;99742.53;;;16.66;81.95
34674;BME280;20879;55.668;37.858;2022-07-23T01:15:42;99758.69;;;16.76;82.05
34674;BME280;20879;55.668;37.858;2022-07-23T01:18:13;99748.22;;;16.76;82.29
34674;BME280;20879;55.668;37.858;2022-07-23T01:20:43;99750.06;;;16.74;82.30
34674;BME280;20879;55.668;37.858;2022-07-23T01:23:15;99750.84;;;16.76;82.80
34674;BME280;20879;55.668;37.858;2022-07-23T01:25:52;99761.97;;;16.81;82.59
34674;BME280;20879;55.668;37.858;2022-07-23T01:28:23;99748.03;;;16.81;81.87
34674;BME280;20879;55.668;37.858;2022-07-23T01:30:56;99756.38;;;16.90;81.81
34674;BME280;20879;55.668;37.858;2022-07-23T01:33:31;99757.59;;;16.82;82.17
34674;BME280;20879;55.668;37.858;2022-07-23T01:36:00;99753.94;;;16.86;82.14
34674;BME280;20879;55.668;37.858;2022-07-23T01:38:32;99750.47;;;16.85;82.81
34674;BME280;20879;55.668;37.858;2022-07-23T01:41:02;99742.72;;;16.82;82.91
34674;BME280;20879;55.668;37.858;2022-07-23T01:43:33;99740.50;;;16.73;82.80
34674;BME280;20879;55.668;37.858;2022-07-23T01:46:03;99754.78;;;16.86;82.36
34674;BME280;20879;55.668;37.858;2022-07-23T01:48:39;99729.97;;;16.74;82.44
34674;BME280;20879;55.668;37.858;2022-07-23T01:51:28;99751.31;;;16.86;82.76
34674;BME280;20879;55.668;37.858;2022-07-23T01:54:08;99739.34;;;16.80;83.12
34674;BME280;20879;55.668;37.858;2022-07-23T01:56:38;99745.09;;;16.90;82.50
34674;BME280;20879;55.668;37.858;2022-07-23T01:59:08;99750.13;;;16.94;82.54
34674;BME280;20879;55.668;37.858;2022-07-23T02:01:37;99745.16;;;16.88;82.68
34674;BME280;20879;55.668;37.858;2022-07-23T02:04:06;99754.25;;;17.00;82.42
34674;BME280;20879;55.668;37.858;2022-07-23T02:06:35;99748.91;;;17.03;82.30
34674;BME280;20879;55.668;37.858;2022-07-23T02:09:04;99754.78;;;17.08;82.40
34674;BME280;20879;55.668;37.858;2022-07-23T02:11:36;99751.19;;;17.11;82.21
34674;BME280;20879;55.668;37.858;2022-07-23T02:14:05;99759.78;;;17.15;82.08
34674;BME280;20879;55.668;37.858;2022-07-23T02:16:34;99749.25;;;17.16;82.39
34674;BME280;20879;55.668;37.858;2022-07-23T02:19:04;99748.31;;;17.17;82.24
34674;BME280;20879;55.668;37.858;2022-07-23T02:21:36;99750.84;;;17.19;81.99
34674;BME280;20879;55.668;37.858;2022-07-23T02:24:06;99745.75;;;17.16;82.61
34674;BME280;20879;55.668;37.858;2022-07-23T02:26:39;99742.94;;;17.20;82.28
34674;BME280;20879;55.668;37.858;2022-07-23T02:29:09;99747.19;;;17.23;82.02
34674;BME280;20879;55.668;37.858;2022-07-23T02:31:38;99755.84;;;17.25;82.00
34674;BME280;20879;55.668;37.858;2022-07-23T02:34:08;99752.16;;;17.29;82.03
34674;BME280;20879;55.668;37.858;2022-07-23T02:36:38;99756.38;;;17.33;81.84
34674;BME280;20879;55.668;37.858;2022-07-23T02:39:08;99749.19;;;17.38;81.91
34674;BME280;20879;55.668;37.858;2022-07-23T02:41:40;99730.94;;;17.37;82.15
34674;BME280;20879;55.668;37.858;2022-07-23T02:44:10;99741.06;;;17.44;81.53
34674;BME280;20879;55.668;37.858;2022-07-23T02:46:42;99741.59;;;17.53;81.39
34674;BME280;20879;55.668;37.858;2022-07-23T02:49:12;99743.13;;;17.57;81.28
34674;BME280;20879;55.668;37.858;2022-07-23T02:51:41;99748.19;;;17.61;81.49
34674;BME280;20879;55.668;37.858;2022-07-23T02:54:11;99748.91;;;17.65;81.44
34674;BME280;20879;55.668;37.858;2022-07-23T02:56:43;99745.38;;;17.66;81.50
34674;BME280;20879;55.668;37.858;2022-07-23T02:59:12;99749.06;;;17.81;80.36
34674;BME280;20879;55.668;37.858;2022-07-23T03:01:41;99750.03;;;17.78;80.87
34674;BME280;20879;55.668;37.858;2022-07-23T03:04:11;99756.00;;;17.82;80.92
34674;BME280;20879;55.668;37.858;2022-07-23T03:06:42;99751.41;;;17.87;80.84
34674;BME280;20879;55.668;37.858;2022-07-23T03:09:11;99756.53;;;17.90;80.70
34674;BME280;20879;55.668;37.858;2022-07-23T03:11:43;99764.25;;;17.93;80.80
34674;BME280;20879;55.668;37.858;2022-07-23T03:14:12;99757.59;;;18.05;80.29
34674;BME280;20879;55.668;37.858;2022-07-23T03:16:43;99763.00;;;18.02;80.85
34674;BME280;20879;55.668;37.858;2022-07-23T03:19:12;99763.72;;;18.06;80.97
34674;BME280;20879;55.668;37.858;2022-07-23T03:21:42;99753.09;;;18.09;80.75
34674;BME280;20879;55.668;37.858;2022-07-23T03:24:13;99756.22;;;18.17;80.89
34674;BME280;20879;55.668;37.858;2022-07-23T03:26:47;99751.53;;;18.24;80.88
34674;BME280;20879;55.668;37.858;2022-07-23T03:29:16;99754.66;;;18.32;80.76
34674;BME280;20879;55.668;37.858;2022-07-23T03:31:46;99759.47;;;18.41;80.32
34674;BME280;20879;55.668;37.858;2022-07-23T03:34:18;99762.00;;;18.43;80.61
34674;BME280;20879;55.668;37.858;2022-07-23T03:36:48;99771.06;;;18.55;80.52
34674;BME280;20879;55.668;37.858;2022-07-23T03:39:17;99771.72;;;18.60;80.42
34674;BME280;20879;55.668;37.858;2022-07-23T03:41:49;99770.19;;;18.73;80.49
34674;BME280;20879;55.668;37.858;2022-07-23T03:44:18;99764.69;;;18.97;79.17
34674;BME280;20879;55.668;37.858;2022-07-23T03:46:47;99774.31;;;19.33;77.98
34674;BME280;20879;55.668;37.858;2022-07-23T03:49:16;99776.28;;;19.63;76.63
34674;BME280;20879;55.668;37.858;2022-07-23T03:51:46;99765.09;;;19.93;75.80
34674;BME280;20879;55.668;37.858;2022-07-23T03:54:16;99770.84;;;20.17;74.35
34674;BME280;20879;55.668;37.858;2022-07-23T03:56:46;99766.69;;;20.29;73.52
34674;BME280;20879;55.668;37.858;2022-07-23T03:59:18;99769.59;;;20.40;72.86
34674;BME280;20879;55.668;37.858;2022-07-23T04:01:50;99760.25;;;20.50;72.12
34674;BME280;20879;55.668;37.858;2022-07-23T04:04:20;99760.81;;;20.55;71.89
34674;BME280;20879;55.668;37.858;2022-07-23T04:06:50;99764.25;;;20.57;71.67
34674;BME280;20879;55.668;37.858;2022-07-23T04:09:19;99743.69;;;20.48;71.44
34674;BME280;20879;55.668;37.858;2022-07-23T04:11:49;99767.03;;;20.54;71.39
34674;BME280;20879;55.668;37.858;2022-07-23T04:14:21;99765.00;;;20.59;70.94
34674;BME280;20879;55.668;37.858;2022-07-23T04:16:52;99770.16;;;20.61;71.19
34674;BME280;20879;55.668;37.858;2022-07-23T04:19:21;99765.75;;;20.62;70.65
34674;BME280;20879;55.668;37.858;2022-07-23T04:22:01;99773.44;;;20.66;70.34
34674;BME280;20879;55.668;37.858;2022-07-23T04:24:33;99754.94;;;20.68;70.24
34674;BME280;20879;55.668;37.858;2022-07-23T04:27:03;99754.22;;;20.80;69.57
34674;BME280;20879;55.668;37.858;2022-07-23T04:29:35;99760.81;;;20.87;69.50
34674;BME280;20879;55.668;37.858;2022-07-23T04:32:05;99768.63;;;20.89;69.33
34674;BME280;20879;55.668;37.858;2022-07-23T04:34:35;99758.25;;;21.02;68.87
34674;BME280;20879;55.668;37.858;2022-07-23T04:37:05;99767.88;;;21.17;68.31
34674;BME280;20879;55.668;37.858;2022-07-23T04:39:35;99763.28;;;21.21;68.61
34674;BME280;20879;55.668;37.858;2022-07-23T04:42:05;99758.34;;;21.30;67.74
34674;BME280;20879;55.668;37.858;2022-07-23T04:44:36;99762.69;;;21.46;67.33
34674;BME280;20879;55.668;37.858;2022-07-23T04:47:06;99759.06;;;21.63;66.62
34674;BME280;20879;55.668;37.858;2022-07-23T04:49:38;99749.00;;;21.70;66.19
34674;BME280;20879;55.668;37.858;2022-07-23T04:52:07;99757.69;;;21.86;66.13
34674;BME280;20879;55.668;37.858;2022-07-23T04:54:37;99762.06;;;21.86;66.11
34674;BME280;20879;55.668;37.858;2022-07-23T04:57:06;99760.75;;;21.93;65.65
34674;BME280;20879;55.668;37.858;2022-07-23T04:59:38;99755.97;;;21.99;65.31
34674;BME280;20879;55.668;37.858;2022-07-23T05:02:08;99755.78;;;22.03;64.94
34674;BME280;20879;55.668;37.858;2022-07-23T05:04:41;99753.47;;;22.11;64.82
34674;BME280;20879;55.668;37.858;2022-07-23T05:07:11;99746.69;;;22.36;64.18
34674;BME280;20879;55.668;37.858;2022-07-23T05:09:42;99746.53;;;22.66;62.53
34674;BME280;20879;55.668;37.858;2022-07-23T05:12:11;99746.00;;;22.61;62.48
34674;BME280;20879;55.668;37.858;2022-07-23T05:14:44;99739.22;;;22.57;62.52
34674;BME280;20879;55.668;37.858;2022-07-23T05:17:16;99733.84;;;22.58;62.24
34674;BME280;20879;55.668;37.858;2022-07-23T05:19:45;99731.34;;;22.69;62.38
34674;BME280;20879;55.668;37.858;2022-07-23T05:22:15;99733.22;;;22.95;61.39
34674;BME280;20879;55.668;37.858;2022-07-23T05:24:44;99730.94;;;23.16;60.28
34674;BME280;20879;55.668;37.858;2022-07-23T05:27:14;99734.53;;;23.28;59.93
34674;BME280;20879;55.668;37.858;2022-07-23T05:29:45;99750.19;;;23.44;59.23
34674;BME280;20879;55.668;37.858;2022-07-23T05:32:14;99743.56;;;23.64;59.42
34674;BME280;20879;55.668;37.858;2022-07-23T05:34:52;99748.06;;;23.62;58.74
34674;BME280;20879;55.668;37.858;2022-07-23T05:37:21;99747.03;;;23.51;58.81
34674;BME280;20879;55.668;37.858;2022-07-23T05:39:50;99749.38;;;23.43;59.52
34674;BME280;20879;55.668;37.858;2022-07-23T05:42:20;99748.09;;;23.36;59.45
34674;BME280;20879;55.668;37.858;2022-07-23T05:44:52;99746.63;;;23.45;59.67
34674;BME280;20879;55.668;37.858;2022-07-23T05:47:21;99738.88;;;23.67;59.86
34674;BME280;20879;55.668;37.858;2022-07-23T05:49:50;99740.25;;;23.60;59.77
34674;BME280;20879;55.668;37.858;2022-07-23T05:52:33;99736.03;;;23.45;59.69
34674;BME280;20879;55.668;37.858;2022-07-23T05:55:23;99736.47;;;23.38;59.85
34674;BME280;20879;55.668;37.858;2022-07-23T05:57:52;99735.72;;;23.49;59.30
34674;BME280;20879;55.668;37.858;2022-07-23T06:00:25;99738.81;;;23.56;58.48
34674;BME280;20879;55.668;37.858;2022-07-23T06:02:54;99735.94;;;23.59;58.79
34674;BME280;20879;55.668;37.858;2022-07-23T06:05:26;99727.81;;;23.62;58.45
34674;BME280;20879;55.668;37.858;2022-07-23T06:07:57;99726.44;;;23.56;58.56
34674;BME280;20879;55.668;37.858;2022-07-23T06:10:27;99717.13;;;23.64;58.55
34674;BME280;20879;55.668;37.858;2022-07-23T06:12:57;99737.63;;;23.73;57.25
34674;BME280;20879;55.668;37.858;2022-07-23T06:15:31;99727.91;;;23.73;57.43
34674;BME280;20879;55.668;37.858;2022-07-23T06:18:01;99740.91;;;23.77;57.25
34674;BME280;20879;55.668;37.858;2022-07-23T06:20:30;99729.91;;;23.83;56.99
34674;BME280;20879;55.668;37.858;2022-07-23T06:23:00;99735.00;;;23.86;57.04
34674;BME280;20879;55.668;37.858;2022-07-23T06:25:29;99735.19;;;23.83;57.92
34674;BME280;20879;55.668;37.858;2022-07-23T06:27:59;99734.25;;;23.84;57.84
34674;BME280;20879;55.668;37.858;2022-07-23T06:30:30;99732.25;;;23.87;58.25
34674;BME280;20879;55.668;37.858;2022-07-23T06:33:03;99735.31;;;23.94;57.45
34674;BME280;20879;55.668;37.858;2022-07-23T06:35:32;99727.66;;;24.02;57.02
34674;BME280;20879;55.668;37.858;2022-07-23T06:38:02;99722.91;;;24.07;57.12
34674;BME280;20879;55.668;37.858;2022-07-23T06:40:32;99725.00;;;24.15;56.58
34674;BME280;20879;55.668;37.858;2022-07-23T06:43:01;99721.16;;;24.19;56.06
34674;BME280;20879;55.668;37.858;2022-07-23T06:45:38;99711.19;;;24.23;56.37
34674;BME280;20879;55.668;37.858;2022-07-23T06:48:07;99706.78;;;24.23;56.10
34674;BME280;20879;55.668;37.858;2022-07-23T06:50:36;99716.25;;;24.26;56.28
34674;BME280;20879;55.668;37.858;2022-07-23T06:53:06;99710.31;;;24.35;56.53
34674;BME280;20879;55.668;37.858;2022-07-23T06:55:40;99709.88;;;24.41;55.88
34674;BME280;20879;55.668;37.858;2022-07-23T06:58:11;99718.88;;;24.39;54.51
34674;BME280;20879;55.668;37.858;2022-07-23T07:00:43;99698.69;;;24.38;55.18
34674;BME280;20879;55.668;37.858;2022-07-23T07:03:12;99711.56;;;24.42;54.99
34674;BME280;20879;55.668;37.858;2022-07-23T07:05:41;99707.13;;;24.43;55.34
34674;BME280;20879;55.668;37.858;2022-07-23T07:08:11;99714.09;;;24.44;54.92
34674;BME280;20879;55.668;37.858;2022-07-23T07:10:40;99696.94;;;24.50;54.67
34674;BME280;20879;55.668;37.858;2022-07-23T07:13:09;99715.88;;;24.43;54.95
34674;BME280;20879;55.668;37.858;2022-07-23T07:15:39;99709.41;;;24.48;54.44
34674;BME280;20879;55.668;37.858;2022-07-23T07:18:10;99698.06;;;24.58;55.16
34674;BME280;20879;55.668;37.858;2022-07-23T07:20:39;99707.59;;;24.61;54.81
34674;BME280;20879;55.668;37.858;2022-07-23T07:23:08;99711.69;;;24.65;54.12
34674;BME280;20879;55.668;37.858;2022-07-23T07:25:43;99702.56;;;24.69;54.60
34674;BME280;20879;55.668;37.858;2022-07-23T07:28:12;99711.00;;;24.74;54.89
34674;BME280;20879;55.668;37.858;2022-07-23T07:30:42;99706.00;;;24.83;54.62
34674;BME280;20879;55.668;37.858;2022-07-23T07:33:13;99717.66;;;24.80;54.06
34674;BME280;20879;55.668;37.858;2022-07-23T07:35:43;99711.81;;;24.88;53.98
34674;BME280;20879;55.668;37.858;2022-07-23T07:38:12;99705.28;;;24.92;53.44
34674;BME280;20879;55.668;37.858;2022-07-23T07:40:41;99714.69;;;24.96;53.04
34674;BME280;20879;55.668;37.858;2022-07-23T07:43:10;99717.09;;;24.99;52.36
34674;BME280;20879;55.668;37.858;2022-07-23T07:45:40;99716.66;;;25.05;52.35
34674;BME280;20879;55.668;37.858;2022-07-23T07:48:09;99715.00;;;25.16;52.70
34674;BME280;20879;55.668;37.858;2022-07-23T07:50:40;99701.03;;;25.25;51.11
34674;BME280;20879;55.668;37.858;2022-07-23T07:53:10;99716.44;;;25.20;51.31
34674;BME280;20879;55.668;37.858;2022-07-23T07:55:39;99704.94;;;25.32;51.72
34674;BME280;20879;55.668;37.858;2022-07-23T07:58:08;99703.50;;;25.51;51.21
34674;BME280;20879;55.668;37.858;2022-07-23T08:00:40;99717.25;;;25.78;50.73
34674;BME280;20879;55.668;37.858;2022-07-23T08:03:09;99715.09;;;26.06;49.96
34674;BME280;20879;55.668;37.858;2022-07-23T08:05:41;99709.56;;;26.09;49.52
34674;BME280;20879;55.668;37.858;2022-07-23T08:08:10;99714.94;;;26.30;49.64
34674;BME280;20879;55.668;37.858;2022-07-23T08:10:41;99717.97;;;26.14;48.36
34674;BME280;20879;55.668;37.858;2022-07-23T08:13:33;99685.78;;;25.96;48.72
34674;BME280;20879;55.668;37.858;2022-07-23T08:16:04;99714.69;;;26.22;48.71
34674;BME280;20879;55.668;37.858;2022-07-23T08:18:34;99718.78;;;26.38;48.38
34674;BME280;20879;55.668;37.858;2022-07-23T08:21:06;99727.03;;;26.56;48.39
34674;BME280;20879;55.668;37.858;2022-07-23T08:23:35;99706.72;;;26.66;47.58
34674;BME280;20879;55.668;37.858;2022-07-23T08:26:05;99721.88;;;26.43;47.29
34674;BME280;20879;55.668;37.858;2022-07-23T08:28:34;99720.63;;;26.26;47.60
34674;BME280;20879;55.668;37.858;2022-07-23T08:31:04;99716.13;;;26.26;47.20
34674;BME280;20879;55.668;37.858;2022-07-23T08:33:34;99709.75;;;26.29;46.78
34674;BME280;20879;55.668;37.858;2022-07-23T08:36:06;99697.69;;;26.25;47.02
34674;BME280;20879;55.668;37.858;2022-07-23T08:38:38;99692.06;;;26.18;46.58
34674;BME280;20879;55.668;37.858;2022-07-23T08:41:08;99703.75;;;26.15;47.65
34674;BME280;20879;55.668;37.858;2022-07-23T08:43:37;99698.91;;;26.21;47.17
34674;BME280;20879;55.668;37.858;2022-07-23T08:46:08;99695.38;;;26.31;46.97
34674;BME280;20879;55.668;37.858;2022-07-23T08:48:37;99695.94;;;26.46;46.55
34674;BME280;20879;55.668;37.858;2022-07-23T08:51:08;99696.03;;;26.56;46.94
34674;BME280;20879;55.668;37.858;2022-07-23T08:53:38;99682.13;;;26.64;46.94
34674;BME280;20879;55.668;37.858;2022-07-23T08:56:08;99686.78;;;26.39;47.39
34674;BME280;20879;55.668;37.858;2022-07-23T08:58:38;99667.44;;;26.16;46.51
34674;BME280;20879;55.668;37.858;2022-07-23T09:01:07;99649.03;;;25.80;47.48
34674;BME280;20879;55.668;37.858;2022-07-23T09:03:39;99681.22;;;25.76;46.46
34674;BME280;20879;55.668;37.858;2022-07-23T09:06:13;99686.16;;;25.80;46.19
34674;BME280;20879;55.668;37.858;2022-07-23T09:08:43;99698.47;;;26.04;46.29
34674;BME280;20879;55.668;37.858;2022-07-23T09:11:15;99678.88;;;26.16;46.85
34674;BME280;20879;55.668;37.858;2022-07-23T09:13:47;99685.97;;;26.27;46.25
34674;BME280;20879;55.668;37.858;2022-07-23T09:16:20;99684.50;;;26.46;45.90
34674;BME280;20879;55.668;37.858;2022-07-23T09:18:55;99678.16;;;26.58;45.10
34674;BME280;20879;55.668;37.858;2022-07-23T09:21:28;99674.38;;;26.72;44.60
34674;BME280;20879;55.668;37.858;2022-07-23T09:24:00;99675.34;;;26.92;44.90
34674;BME280;20879;55.668;37.858;2022-07-23T09:26:35;99668.13;;;26.94;44.58
34674;BME280;20879;55.668;37.858;2022-07-23T09:29:10;99658.69;;;27.11;43.82
34674;BME280;20879;55.668;37.858;2022-07-23T09:31:45;99673.06;;;27.09;42.49
34674;BME280;20879;55.668;37.858;2022-07-23T09:34:17;99669.38;;;27.21;41.59
34674;BME280;20879;55.668;37.858;2022-07-23T09:36:54;99663.63;;;27.37;41.31
34674;BME280;20879;55.668;37.858;2022-07-23T09:39:29;99668.75;;;27.60;40.99
34674;BME280;20879;55.668;37.858;2022-07-23T09:42:13;99660.66;;;27.71;41.51
34674;BME280;20879;55.668;37.858;2022-07-23T09:44:44;99657.78;;;27.43;42.69
34674;BME280;20879;55.668;37.858;2022-07-23T09:47:14;99672.88;;;27.21;43.63
34674;BME280;20879;55.668;37.858;2022-07-23T09:49:57;99650.41;;;27.05;43.49
34674;BME280;20879;55.668;37.858;2022-07-23T09:52:32;99668.34;;;27.12;43.89
34674;BME280;20879;55.668;37.858;2022-07-23T09:55:05;99667.88;;;27.07;43.99
34674;BME280;20879;55.668;37.858;2022-07-23T09:57:36;99669.91;;;27.15;43.26
34674;BME280;20879;55.668;37.858;2022-07-23T10:00:09;99667.56;;;27.21;42.18
34674;BME280;20879;55.668;37.858;2022-07-23T10:02:40;99665.56;;;27.35;42.30
34674;BME280;20879;55.668;37.858;2022-07-23T10:05:30;99646.91;;;27.56;41.07
34674;BME280;20879;55.668;37.858;2022-07-23T10:08:31;99650.28;;;27.99;40.38
34674;BME280;20879;55.668;37.858;2022-07-23T10:11:19;99625.50;;;28.37;39.36
34674;BME280;20879;55.668;37.858;2022-07-23T10:13:58;99650.59;;;28.74;38.92
34674;BME280;20879;55.668;37.858;2022-07-23T10:16:51;99640.13;;;28.63;39.12
34674;BME280;20879;55.668;37.858;2022-07-23T10:19:21;99648.06;;;28.43;39.97
34674;BME280;20879;55.668;37.858;2022-07-23T10:21:54;99654.22;;;28.04;40.89
34674;BME280;20879;55.668;37.858;2022-07-23T10:27:34;99638.88;;;27.46;42.79
34674;BME280;20879;55.668;37.858;2022-07-23T10:30:11;99648.03;;;27.32;42.96
34674;BME280;20879;55.668;37.858;2022-07-23T10:33:03;99641.66;;;27.14;44.10
34674;BME280;20879;55.668;37.858;2022-07-23T10:35:46;99643.81;;;26.99;44.39
34674;BME280;20879;55.668;37.858;2022-07-23T10:38:21;99645.44;;;26.90;44.97
34674;BME280;20879;55.668;37.858;2022-07-23T10:40:57;99637.59;;;26.89;44.23
34674;BME280;20879;55.668;37.858;2022-07-23T10:43:29;99639.72;;;26.95;43.42
34674;BME280;20879;55.668;37.858;2022-07-23T10:46:23;99630.69;;;27.07;42.60
34674;BME280;20879;55.668;37.858;2022-07-23T10:49:21;99626.63;;;27.03;42.98
34674;BME280;20879;55.668;37.858;2022-07-23T10:52:17;99619.38;;;27.05;41.69
34674;BME280;20879;55.668;37.858;2022-07-23T10:54:48;99592.56;;;26.87;42.39
34674;BME280;20879;55.668;37.858;2022-07-23T10:57:22;99605.31;;;26.93;42.11
34674;BME280;20879;55.668;37.858;2022-07-23T11:00:16;99615.28;;;27.01;42.54
34674;BME280;20879;55.668;37.858;2022-07-23T11:02:49;99608.66;;;27.16;42.17
34674;BME280;20879;55.668;37.858;2022-07-23T11:05:23;99604.09;;;27.28;42.07
34674;BME280;20879;55.668;37.858;2022-07-23T11:08:14;99609.59;;;27.36;42.18
34674;BME280;20879;55.668;37.858;2022-07-23T11:10:47;99597.72;;;27.41;42.44
34674;BME280;20879;55.668;37.858;2022-07-23T11:13:32;99600.56;;;27.28;42.50
34674;BME280;20879;55.668;37.858;2022-07-23T11:16:04;99591.44;;;27.11;41.45
34674;BME280;20879;55.668;37.858;2022-07-23T11:21:46;99598.19;;;26.94;41.86
34674;BME280;20879;55.668;37.858;2022-07-23T11:24:20;99592.56;;;26.87;41.92
34674;BME280;20879;55.668;37.858;2022-07-23T11:26:56;99599.47;;;26.99;42.09
34674;BME280;20879;55.668;37.858;2022-07-23T11:32:38;99588.94;;;27.19;41.06
34674;BME280;20879;55.668;37.858;2022-07-23T11:35:25;99595.78;;;27.43;41.84
34674;BME280;20879;55.668;37.858;2022-07-23T11:38:03;99582.88;;;27.38;41.68
34674;BME280;20879;55.668;37.858;2022-07-23T11:40:34;99604.06;;;27.49;41.83
34674;BME280;20879;55.668;37.858;2022-07-23T11:43:05;99586.03;;;27.63;42.51
34674;BME280;20879;55.668;37.858;2022-07-23T11:45:39;99556.78;;;27.53;41.45
34674;BME280;20879;55.668;37.858;2022-07-23T11:48:09;99571.59;;;27.55;41.92
34674;BME280;20879;55.668;37.858;2022-07-23T11:50:44;99571.59;;;27.55;41.53
34674;BME280;20879;55.668;37.858;2022-07-23T11:53:13;99578.84;;;27.44;40.81
34674;BME280;20879;55.668;37.858;2022-07-23T11:55:50;99590.34;;;27.54;41.37
34674;BME280;20879;55.668;37.858;2022-07-23T11:58:19;99567.25;;;27.45;40.96
34674;BME280;20879;55.668;37.858;2022-07-23T12:00:50;99580.81;;;27.42;41.31
34674;BME280;20879;55.668;37.858;2022-07-23T12:03:20;99579.66;;;27.34;41.00
34674;BME280;20879;55.668;37.858;2022-07-23T12:05:55;99575.50;;;27.42;40.71
34674;BME280;20879;55.668;37.858;2022-07-23T12:08:25;99568.69;;;27.59;40.62
34674;BME280;20879;55.668;37.858;2022-07-23T12:10:56;99572.28;;;27.48;40.67
34674;BME280;20879;55.668;37.858;2022-07-23T12:13:26;99575.91;;;27.37;41.02
34674;BME280;20879;55.668;37.858;2022-07-23T12:15:57;99562.13;;;27.32;40.97
34674;BME280;20879;55.668;37.858;2022-07-23T12:18:27;99575.78;;;27.17;41.21
34674;BME280;20879;55.668;37.858;2022-07-23T12:20:57;99562.47;;;27.08;41.45
34674;BME280;20879;55.668;37.858;2022-07-23T12:23:32;99560.38;;;27.11;41.97
34674;BME280;20879;55.668;37.858;2022-07-23T12:26:05;99551.84;;;27.17;42.10
34674;BME280;20879;55.668;37.858;2022-07-23T12:28:37;99561.97;;;27.24;41.64
34674;BME280;20879;55.668;37.858;2022-07-23T12:31:12;99560.22;;;27.34;41.94
34674;BME280;20879;55.668;37.858;2022-07-23T12:33:43;99562.19;;;27.42;41.80
34674;BME280;20879;55.668;37.858;2022-07-23T12:36:13;99545.41;;;27.41;41.04
34674;BME280;20879;55.668;37.858;2022-07-23T12:38:46;99552.41;;;27.42;40.67
34674;BME280;20879;55.668;37.858;2022-07-23T12:41:16;99539.38;;;27.39;40.89
34674;BME280;20879;55.668;37.858;2022-07-23T12:43:46;99554.78;;;27.45;40.43
34674;BME280;20879;55.668;37.858;2022-07-23T12:46:19;99552.72;;;27.49;40.46
34674;BME280;20879;55.668;37.858;2022-07-23T12:48:53;99548.81;;;27.53;40.78
34674;BME280;20879;55.668;37.858;2022-07-23T12:57:47;99537.19;;;27.64;41.21
34674;BME280;20879;55.668;37.858;2022-07-23T13:00:18;99547.84;;;27.64;40.98
34674;BME280;20879;55.668;37.858;2022-07-23T13:02:50;99536.63;;;27.70;41.27
34674;BME280;20879;55.668;37.858;2022-07-23T13:05:19;99542.81;;;27.80;41.33
34674;BME280;20879;55.668;37.858;2022-07-23T13:07:49;99538.34;;;27.81;39.98
34674;BME280;20879;55.668;37.858;2022-07-23T13:10:19;99532.44;;;27.77;40.20
34674;BME280;20879;55.668;37.858;2022-07-23T13:12:50;99528.22;;;27.75;39.84
34674;BME280;20879;55.668;37.858;2022-07-23T13:15:20;99534.69;;;27.92;39.45
34674;BME280;20879;55.668;37.858;2022-07-23T13:17:50;99514.81;;;27.96;39.38
34674;BME280;20879;55.668;37.858;2022-07-23T13:20:21;99530.50;;;28.18;40.07
34674;BME280;20879;55.668;37.858;2022-07-23T13:22:51;99505.88;;;28.06;40.28
34674;BME280;20879;55.668;37.858;2022-07-23T13:25:20;99526.34;;;28.16;39.84
34674;BME280;20879;55.668;37.858;2022-07-23T13:27:51;99523.69;;;28.16;39.68
34674;BME280;20879;55.668;37.858;2022-07-23T13:30:20;99521.41;;;28.31;39.62